createdAt,value
2023-03-11T00:01:14.307Z,7.10
2023-03-11T00:03:42.363Z,7.18
2023-03-11T00:06:10.806Z,7.10
2023-03-11T00:08:38.889Z,6.55
2023-03-11T00:11:08.395Z,6.60
2023-03-11T00:13:36.996Z,6.65
2023-03-11T00:16:05.655Z,6.32
2023-03-11T00:18:33.908Z,6.57
2023-03-11T00:21:02.536Z,6.65
2023-03-11T00:23:30.816Z,7.00
2023-03-11T00:25:59.870Z,4.88
2023-03-11T00:28:29.457Z,5.82
2023-03-11T00:31:05.778Z,5.97
2023-03-11T00:33:34.049Z,6.72
2023-03-11T00:36:02.119Z,6.82
2023-03-11T00:38:30.320Z,6.05
2023-03-11T00:41:01.624Z,5.63
2023-03-11T00:43:31.044Z,5.88
2023-03-11T00:45:59.105Z,5.25
2023-03-11T00:48:27.307Z,5.63
2023-03-11T00:50:55.445Z,6.68
2023-03-11T00:53:23.498Z,6.72
2023-03-11T00:55:51.514Z,6.20
2023-03-11T00:58:19.555Z,7.72
2023-03-11T05:02:48.288Z,6.00
2023-03-11T05:08:46.496Z,6.22
2023-03-11T05:11:14.613Z,5.70
2023-03-11T05:13:42.651Z,5.28
2023-03-11T05:16:10.766Z,5.38
2023-03-11T05:18:40.298Z,6.13
2023-03-11T05:21:08.416Z,5.88
2023-03-11T05:23:36.517Z,5.32
2023-03-11T05:26:04.840Z,5.28
2023-03-11T05:28:32.929Z,5.13
2023-03-11T05:31:01.008Z,5.10
2023-03-11T05:33:32.306Z,4.65
2023-03-11T05:36:07.138Z,5.22
2023-03-11T05:38:35.246Z,5.50
2023-03-11T05:41:03.387Z,4.70
2023-03-11T05:43:31.458Z,4.65
2023-03-11T05:45:59.511Z,5.55
2023-03-11T05:48:27.561Z,4.65
2023-03-11T05:50:55.710Z,5.30
2023-03-11T05:53:25.327Z,5.47
2023-03-11T05:55:59.088Z,4.75
2023-03-11T05:58:27.266Z,5.28
2023-03-11T06:00:55.408Z,5.10
2023-03-11T06:03:23.799Z,5.75
2023-03-11T06:05:53.029Z,6.00
2023-03-11T06:08:22.035Z,5.80
2023-03-11T06:10:51.432Z,6.22
2023-03-11T06:13:19.551Z,4.95
2023-03-11T06:15:47.600Z,5.05
2023-03-11T06:18:15.647Z,5.05
2023-03-11T06:20:43.669Z,5.18
2023-03-11T06:23:11.797Z,5.50
2023-03-11T06:25:40.022Z,5.40
2023-03-11T06:28:09.505Z,5.22
2023-03-11T06:30:37.605Z,5.10
2023-03-11T06:33:05.761Z,4.53
2023-03-11T06:35:33.907Z,5.35
2023-03-11T06:38:02.000Z,5.10
2023-03-11T06:40:30.090Z,5.53
2023-03-11T06:42:58.165Z,4.68
2023-03-11T06:45:27.797Z,4.97
2023-03-11T06:47:55.889Z,3.60
2023-03-11T06:50:24.121Z,3.83
2023-03-11T06:52:52.154Z,4.22
2023-03-11T06:55:21.230Z,3.80
2023-03-11T06:57:49.299Z,4.40
2023-03-11T07:00:18.211Z,3.90
2023-03-11T07:02:47.649Z,4.03
2023-03-11T07:05:15.842Z,3.92
2023-03-11T07:07:43.979Z,4.28
2023-03-11T07:10:13.154Z,3.67
2023-03-11T07:12:41.207Z,3.70
2023-03-11T07:15:10.772Z,3.83
2023-03-11T07:17:38.911Z,3.85
2023-03-11T07:20:10.441Z,3.97
2023-03-11T07:22:38.466Z,3.95
2023-03-11T07:25:07.512Z,5.32
2023-03-11T07:27:35.578Z,3.58
2023-03-11T07:30:04.755Z,3.67
2023-03-11T07:32:32.841Z,3.53
2023-03-11T07:35:00.925Z,3.33
2023-03-11T07:37:30.406Z,2.70
2023-03-11T07:39:58.509Z,3.50
2023-03-11T07:42:26.680Z,2.70
2023-03-11T07:44:54.858Z,3.72
2023-03-11T07:47:24.775Z,2.55
2023-03-11T07:49:52.865Z,2.83
2023-03-11T07:52:20.912Z,3.38
2023-03-11T07:54:50.347Z,3.65
2023-03-11T07:57:18.601Z,3.38
2023-03-11T07:59:46.651Z,3.58
2023-03-11T08:02:14.736Z,3.88
2023-03-11T08:04:42.824Z,2.90
2023-03-11T08:07:10.877Z,3.05
2023-03-11T08:09:38.923Z,3.22
2023-03-11T08:12:09.392Z,2.42
2023-03-11T08:14:37.735Z,2.95
2023-03-11T08:17:05.980Z,2.60
2023-03-11T08:19:34.042Z,3.13
2023-03-11T08:22:02.989Z,2.85
2023-03-11T08:24:31.024Z,2.70
2023-03-11T08:26:59.085Z,3.55
2023-03-11T08:29:28.530Z,2.70
2023-03-11T08:31:56.642Z,2.42
2023-03-11T08:34:24.762Z,2.70
2023-03-11T08:36:52.926Z,2.33
2023-03-11T08:39:20.938Z,2.50
2023-03-11T08:41:49.037Z,2.45
2023-03-11T08:44:17.091Z,2.47
2023-03-11T08:46:46.734Z,2.92
2023-03-11T08:49:14.953Z,2.00
2023-03-11T08:51:43.152Z,2.90
2023-03-11T08:54:11.404Z,2.00
2023-03-11T08:56:39.557Z,2.38
2023-03-11T08:59:08.502Z,2.70
2023-03-11T09:01:36.606Z,2.22
2023-03-11T09:04:06.309Z,2.28
2023-03-11T09:06:34.413Z,2.28
2023-03-11T09:09:02.500Z,2.03
2023-03-11T09:11:30.601Z,2.88
2023-03-11T09:13:58.619Z,2.08
2023-03-11T09:16:26.843Z,2.20
2023-03-11T09:18:54.973Z,2.42
2023-03-11T09:21:26.429Z,2.35
2023-03-11T09:23:54.444Z,2.08
2023-03-11T09:26:23.071Z,2.03
2023-03-11T09:28:51.110Z,2.38
2023-03-11T09:31:19.806Z,1.45
2023-03-11T09:33:48.416Z,1.90
2023-03-11T09:36:18.661Z,1.80
2023-03-11T09:38:48.190Z,1.85
2023-03-11T09:41:27.452Z,1.63
2023-03-11T09:44:04.932Z,1.63
2023-03-11T09:47:07.761Z,1.50
2023-03-11T09:49:51.808Z,1.50
2023-03-11T09:52:25.732Z,1.98
2023-03-11T09:54:57.308Z,1.95
2023-03-11T09:57:28.110Z,1.67
2023-03-11T09:59:56.544Z,1.73
2023-03-11T10:02:26.913Z,1.95
2023-03-11T10:04:58.569Z,2.03
2023-03-11T10:07:29.979Z,2.20
2023-03-11T10:10:00.354Z,2.33
2023-03-11T10:12:43.332Z,1.85
2023-03-11T10:15:19.083Z,1.80
2023-03-11T10:18:07.987Z,1.60
2023-03-11T10:20:44.067Z,1.60
2023-03-11T10:23:21.644Z,1.60
2023-03-11T10:25:59.135Z,1.70
2023-03-11T10:28:29.816Z,1.73
2023-03-11T10:31:01.112Z,1.98
2023-03-11T10:33:32.999Z,1.88
2023-03-11T10:36:05.960Z,1.35
2023-03-11T10:41:08.034Z,1.83
2023-03-11T10:43:39.731Z,1.77
2023-03-11T10:46:13.502Z,1.83
2023-03-11T10:48:41.544Z,1.85
2023-03-11T10:51:18.002Z,1.30
2023-03-11T10:53:49.140Z,1.67
2023-03-11T10:56:29.864Z,2.60
2023-03-11T10:58:58.624Z,1.50
2023-03-11T11:01:28.810Z,1.48
2023-03-11T11:04:00.882Z,1.55
2023-03-11T11:06:30.756Z,1.83
2023-03-11T11:09:19.834Z,1.38
2023-03-11T11:12:06.265Z,1.63
2023-03-11T11:14:47.872Z,1.65
2023-03-11T11:17:21.009Z,1.80
2023-03-11T11:19:50.631Z,1.48
2023-03-11T11:22:19.808Z,1.13
2023-03-11T11:24:48.986Z,1.75
2023-03-11T11:27:20.710Z,1.55
2023-03-11T11:29:50.272Z,1.52
2023-03-11T11:32:21.417Z,1.45
2023-03-11T11:34:59.209Z,1.48
2023-03-11T11:37:31.860Z,2.03
2023-03-11T11:40:11.189Z,1.45
2023-03-11T11:42:42.850Z,2.50
2023-03-11T11:45:16.084Z,1.98
2023-03-11T11:47:48.249Z,1.48
2023-03-11T11:50:19.680Z,1.60
2023-03-11T11:52:51.110Z,2.15
2023-03-11T11:55:22.342Z,1.70
2023-03-11T11:57:52.449Z,1.73
2023-03-11T12:00:24.386Z,1.45
2023-03-11T12:03:07.649Z,1.40
2023-03-11T12:05:39.250Z,1.52
2023-03-11T12:08:14.452Z,1.50
2023-03-11T12:10:45.741Z,1.42
2023-03-11T12:13:44.873Z,1.35
2023-03-11T12:16:21.045Z,2.20
2023-03-11T12:18:52.891Z,2.13
2023-03-11T12:21:32.872Z,2.67
2023-03-11T12:24:10.796Z,2.10
2023-03-11T12:26:40.825Z,2.30
2023-03-11T12:29:16.194Z,2.22
2023-03-11T12:31:44.731Z,1.60
2023-03-11T12:34:15.180Z,2.13
2023-03-11T12:36:45.548Z,1.65
2023-03-11T12:39:24.349Z,1.83
2023-03-11T12:42:16.056Z,1.27
2023-03-11T12:44:46.428Z,1.33
2023-03-11T12:47:28.926Z,1.10
2023-03-11T12:50:00.782Z,1.42
2023-03-11T12:52:30.696Z,1.90
2023-03-11T12:55:38.466Z,1.85
2023-03-11T12:58:32.014Z,1.67
2023-03-11T13:03:50.494Z,2.70
2023-03-11T13:06:40.739Z,1.60
2023-03-11T13:09:15.060Z,2.95
2023-03-11T13:11:45.468Z,3.85
2023-03-11T13:14:24.582Z,1.80
2023-03-11T13:16:54.020Z,1.90
2023-03-11T13:19:50.290Z,1.55
2023-03-11T13:23:02.836Z,2.25
2023-03-11T13:25:38.392Z,1.35
2023-03-11T13:28:37.002Z,1.52
2023-03-11T13:31:15.946Z,1.90
2023-03-11T13:33:50.890Z,1.75
2023-03-11T13:36:31.537Z,1.48
2023-03-11T13:39:27.524Z,2.20
2023-03-11T13:41:56.064Z,1.70
2023-03-11T13:44:29.189Z,1.25
2023-03-11T13:47:01.787Z,1.27
2023-03-11T13:49:37.179Z,2.13
2023-03-11T13:52:10.910Z,1.70
2023-03-11T13:54:46.612Z,1.10
2023-03-11T13:57:26.345Z,1.40
2023-03-11T13:59:55.373Z,0.90
2023-03-11T14:02:25.645Z,1.05
2023-03-11T14:04:59.406Z,1.20
2023-03-11T14:07:30.485Z,1.30
2023-03-11T14:10:17.941Z,1.40
2023-03-11T14:12:46.093Z,1.20
2023-03-11T14:15:17.306Z,1.42
2023-03-11T14:17:47.712Z,1.42
2023-03-11T14:20:22.278Z,1.38
2023-03-11T14:22:52.609Z,1.50
2023-03-11T14:25:23.577Z,1.50
2023-03-11T14:27:55.045Z,1.50
2023-03-11T14:30:26.174Z,2.40
2023-03-11T14:32:59.418Z,1.80
2023-03-11T14:35:29.421Z,2.35
2023-03-11T14:37:57.637Z,3.03
2023-03-11T14:40:28.297Z,2.00
2023-03-11T14:42:57.864Z,2.78
2023-03-11T14:45:28.655Z,1.80
2023-03-11T14:47:59.413Z,1.80
2023-03-11T14:50:31.828Z,2.08
2023-03-11T14:53:04.353Z,1.60
2023-03-11T14:55:35.019Z,1.70
2023-03-11T14:58:05.306Z,1.73
2023-03-11T15:00:36.460Z,1.77
2023-03-11T15:03:14.348Z,1.70
2023-03-11T15:05:47.928Z,1.60
2023-03-11T15:08:19.044Z,1.63
2023-03-11T15:11:15.126Z,1.83
2023-03-11T15:13:46.364Z,1.40
2023-03-11T15:16:25.066Z,2.00
2023-03-11T15:18:54.457Z,1.65
2023-03-11T15:21:25.176Z,1.70
2023-03-11T15:23:55.036Z,2.15
2023-03-11T15:26:25.049Z,1.55
2023-03-11T15:28:58.901Z,2.22
2023-03-11T15:31:36.142Z,2.55
2023-03-11T15:34:28.634Z,1.50
2023-03-11T15:37:01.538Z,1.42
2023-03-11T15:39:43.818Z,2.15
2023-03-11T15:42:24.467Z,1.58
2023-03-11T15:45:03.128Z,1.38
2023-03-11T15:47:31.383Z,1.65
2023-03-11T15:49:59.509Z,1.50
2023-03-11T15:52:28.948Z,0.98
2023-03-11T15:54:56.977Z,1.30
2023-03-11T15:57:27.441Z,1.63
2023-03-11T15:59:57.005Z,1.50
2023-03-11T16:02:27.308Z,1.20
2023-03-11T16:04:56.160Z,1.33
2023-03-11T16:07:38.833Z,1.58
2023-03-11T16:10:10.401Z,1.67
2023-03-11T16:12:39.086Z,1.60
2023-03-11T16:15:11.615Z,1.75
2023-03-11T16:17:49.447Z,1.77
2023-03-11T16:20:18.530Z,1.75
2023-03-11T16:22:47.252Z,1.85
2023-03-11T16:25:21.894Z,2.67
2023-03-11T16:27:51.761Z,2.05
2023-03-11T16:30:20.336Z,2.00
2023-03-11T16:32:48.507Z,1.50
2023-03-11T16:35:16.846Z,2.92
2023-03-11T16:37:45.012Z,6.03
2023-03-11T16:40:14.496Z,8.27
2023-03-11T16:42:44.727Z,4.97
2023-03-11T16:45:13.892Z,18.25
2023-03-11T16:47:41.963Z,14.93
2023-03-11T16:50:11.526Z,7.78
2023-03-11T16:52:39.667Z,6.57
2023-03-11T16:55:08.496Z,11.48
2023-03-11T16:57:37.853Z,17.45
2023-03-11T17:00:10.825Z,15.68
2023-03-11T17:05:08.197Z,11.43
2023-03-11T17:07:39.180Z,8.70
2023-03-11T17:10:08.382Z,5.70
2023-03-11T17:12:37.105Z,6.20
2023-03-11T17:15:07.889Z,5.15
2023-03-11T17:17:36.011Z,4.75
2023-03-11T17:20:06.232Z,3.00
2023-03-11T17:22:34.331Z,3.03
2023-03-11T17:25:02.902Z,10.60
2023-03-11T17:27:32.569Z,6.85
2023-03-11T17:30:01.203Z,5.22
2023-03-11T17:32:30.842Z,6.05
2023-03-11T17:34:59.011Z,8.07
2023-03-11T17:37:27.882Z,10.07
2023-03-11T17:39:56.035Z,8.18
2023-03-11T17:42:24.467Z,7.50
2023-03-11T17:44:54.506Z,4.78
2023-03-11T17:47:25.995Z,3.20
2023-03-11T17:49:55.577Z,3.63
2023-03-11T17:52:23.593Z,3.22
2023-03-11T17:54:52.083Z,2.58
2023-03-11T17:57:20.119Z,2.47
2023-03-11T17:59:52.662Z,2.50
2023-03-11T18:02:21.149Z,3.10
2023-03-11T18:04:53.852Z,3.83
2023-03-11T18:07:23.760Z,7.55
2023-03-11T18:09:53.321Z,14.77
2023-03-11T18:12:22.042Z,12.77
2023-03-11T18:14:50.119Z,12.25
2023-03-11T18:17:18.924Z,5.25
2023-03-11T18:19:47.143Z,5.32
2023-03-11T18:22:15.519Z,3.03
2023-03-11T18:24:45.640Z,3.30
2023-03-11T18:27:13.691Z,2.67
2023-03-11T18:29:41.936Z,2.47
2023-03-11T18:32:10.185Z,2.63
2023-03-11T18:34:38.332Z,2.60
2023-03-11T18:37:06.456Z,3.00
2023-03-11T18:39:34.517Z,3.63
2023-03-11T18:42:04.543Z,3.78
2023-03-11T18:44:37.345Z,4.47
2023-03-11T18:47:05.410Z,3.88
2023-03-11T18:49:33.656Z,6.45
2023-03-11T18:52:01.696Z,5.72
2023-03-11T18:54:29.951Z,5.43
2023-03-11T18:56:58.029Z,5.13
2023-03-11T18:59:28.320Z,11.13
2023-03-11T19:01:56.462Z,11.05
2023-03-11T19:04:24.589Z,8.82
2023-03-11T19:06:52.665Z,7.90
2023-03-11T19:09:20.748Z,9.05
2023-03-11T19:11:48.881Z,8.05
2023-03-11T19:14:16.907Z,8.63
2023-03-11T19:16:46.396Z,7.38
2023-03-11T19:19:14.591Z,11.32
2023-03-11T19:21:42.847Z,9.57
2023-03-11T19:24:11.086Z,13.38
2023-03-11T19:26:45.191Z,10.68
2023-03-11T19:29:14.742Z,11.32
2023-03-11T19:31:43.578Z,12.55
2023-03-11T19:34:13.226Z,10.98
2023-03-11T19:36:41.376Z,8.77
2023-03-11T19:39:09.594Z,7.15
2023-03-11T19:41:37.643Z,6.00
2023-03-11T19:44:05.737Z,6.05
2023-03-11T19:46:34.872Z,6.32
2023-03-11T19:49:03.369Z,7.28
2023-03-11T19:51:48.701Z,7.53
2023-03-11T19:54:17.526Z,8.70
2023-03-11T19:56:45.606Z,9.05
2023-03-11T19:59:13.686Z,8.40
2023-03-11T20:01:42.889Z,9.80
2023-03-11T20:04:11.372Z,8.43
2023-03-11T20:06:40.947Z,8.60
2023-03-11T20:09:09.095Z,9.63
2023-03-11T20:11:40.120Z,8.93
2023-03-11T20:14:08.333Z,7.60
2023-03-11T20:16:36.476Z,9.48
2023-03-11T20:19:04.826Z,8.25
2023-03-11T20:21:33.100Z,7.75
2023-03-11T20:24:02.586Z,8.85
2023-03-11T20:26:30.725Z,7.88
2023-03-11T20:28:58.908Z,7.47
2023-03-11T20:31:28.136Z,8.68
2023-03-11T20:33:56.780Z,10.07
2023-03-11T20:36:26.795Z,11.50
2023-03-11T20:38:56.198Z,9.25
2023-03-11T20:41:26.998Z,9.70
2023-03-11T20:43:56.281Z,10.32
2023-03-11T20:46:24.709Z,10.23
2023-03-11T20:48:52.790Z,9.68
2023-03-11T20:51:23.164Z,10.00
2023-03-11T20:53:51.275Z,13.38
2023-03-11T20:56:20.877Z,8.75
2023-03-11T20:58:51.794Z,8.50
2023-03-11T21:01:21.970Z,8.63
2023-03-11T21:03:50.409Z,8.65
2023-03-11T21:06:20.007Z,8.05
2023-03-11T21:08:48.549Z,7.45
2023-03-11T21:11:17.450Z,8.10
2023-03-11T21:13:45.787Z,7.63
2023-03-11T21:16:15.626Z,7.85
2023-03-11T21:18:44.433Z,7.65
2023-03-11T21:21:13.079Z,7.30
2023-03-11T21:23:42.114Z,9.05
2023-03-11T21:26:10.595Z,7.80
2023-03-11T21:28:40.126Z,7.25
2023-03-11T21:31:10.903Z,7.80
2023-03-11T21:33:41.494Z,7.63
2023-03-11T21:36:10.850Z,8.75
2023-03-11T21:38:40.525Z,8.43
2023-03-11T21:41:10.944Z,9.50
2023-03-11T21:43:39.851Z,8.25
2023-03-11T21:46:08.767Z,8.38
2023-03-11T21:48:37.042Z,9.65
2023-03-11T21:51:07.236Z,11.30
2023-03-11T21:53:35.945Z,13.77
2023-03-11T21:56:04.709Z,10.90
2023-03-11T21:58:33.378Z,12.82
2023-03-11T22:01:01.854Z,15.68
2023-03-11T22:03:30.728Z,13.73
2023-03-11T22:05:58.974Z,15.20
2023-03-11T22:08:28.777Z,13.95
2023-03-11T22:10:57.072Z,14.68
2023-03-11T22:13:25.635Z,15.30
2023-03-11T22:15:53.878Z,10.50
2023-03-11T22:18:22.270Z,8.75
2023-03-11T22:20:50.430Z,8.65
2023-03-11T22:23:18.506Z,7.55
2023-03-11T22:25:47.890Z,8.35
2023-03-11T22:28:15.956Z,9.05
2023-03-11T22:30:43.974Z,8.65
2023-03-11T22:33:12.090Z,8.02
2023-03-11T22:35:40.172Z,8.40
2023-03-11T22:38:08.500Z,8.45
2023-03-11T22:40:36.518Z,8.98
2023-03-11T22:43:05.951Z,9.10
2023-03-11T22:45:33.985Z,8.40
2023-03-11T22:48:02.146Z,9.13
2023-03-11T22:50:30.223Z,8.20
2023-03-11T22:52:58.368Z,8.38
2023-03-11T22:55:26.418Z,8.98
2023-03-11T22:57:54.517Z,8.35
2023-03-11T23:00:25.222Z,8.20
2023-03-11T23:02:55.070Z,7.82
2023-03-11T23:05:23.804Z,8.93
2023-03-11T23:07:52.379Z,8.65
2023-03-11T23:10:21.331Z,7.68
2023-03-11T23:12:50.070Z,8.93
2023-03-11T23:15:19.651Z,8.25
2023-03-11T23:17:49.123Z,8.05
2023-03-11T23:20:18.232Z,8.25
2023-03-11T23:22:46.315Z,8.00
2023-03-11T23:25:16.221Z,8.57
2023-03-11T23:27:46.196Z,7.97
2023-03-11T23:30:16.811Z,8.63
2023-03-11T23:32:45.130Z,8.73
2023-03-11T23:35:14.600Z,8.15
2023-03-11T23:37:42.652Z,8.75
2023-03-11T23:40:12.124Z,8.18
2023-03-11T23:42:40.238Z,8.70
2023-03-11T23:45:09.570Z,8.35
2023-03-11T23:47:38.053Z,8.50
2023-03-11T23:50:06.991Z,7.18
2023-03-11T23:52:36.808Z,8.75
2023-03-11T23:55:05.263Z,8.18
2023-03-11T23:57:35.656Z,7.72
